Time;durP1;ratioP1;P1;durP2;ratioP2;P2;SDS_P1;SDS_P2;PMS_P1;PMS_P2;Temp;Humidity;BMP_temperature;BMP_pressure;BME280_temperature;BME280_humidity;BME280_pressure;Samples;Min_cycle;Max_cycle;Signal;HPM_P1;HPM_P2
2022/05/01 00:00:05;;;;;;;4.93;3.80;;;9.60;99.90;;;;;;6176374;28;20206;-67
2022/05/01 00:03:31;;;;;;;4.82;3.78;;;9.60;99.90;;;;;;6170623;28;20238;-69
2022/05/01 00:06:37;;;;;;;4.80;4.18;;;9.70;99.90;;;;;;6177286;28;20665;-67
2022/05/01 00:09:43;;;;;;;6.47;4.50;;;9.70;99.90;;;;;;6176544;28;20317;-66
2022/05/01 00:12:49;;;;;;;6.15;4.13;;;9.70;99.90;;;;;;6176473;28;20245;-67
2022/05/01 00:15:55;;;;;;;5.00;4.20;;;9.60;99.90;;;;;;6176010;28;20237;-66
2022/05/01 00:19:01;;;;;;;4.38;3.97;;;9.60;99.90;;;;;;6175717;28;20697;-67
2022/05/01 00:22:06;;;;;;;4.82;4.03;;;9.60;99.90;;;;;;6168012;28;20617;-67
2022/05/01 00:25:13;;;;;;;5.03;3.78;;;9.60;99.90;;;;;;6176149;28;20511;-66
2022/05/01 00:28:19;;;;;;;6.85;4.05;;;9.60;99.90;;;;;;6176061;28;20234;-67
2022/05/01 00:31:25;;;;;;;4.10;3.90;;;9.50;99.90;;;;;;6170002;28;20206;-66
2022/05/01 00:37:55;;;;;;;5.90;4.00;;;9.50;99.90;;;;;;6174807;28;20238;-67
2022/05/01 00:41:02;;;;;;;5.18;3.78;;;9.50;99.90;;;;;;6176543;28;20217;-66
2022/05/01 00:44:09;;;;;;;4.60;4.00;;;9.50;99.90;;;;;;6168649;28;20238;-67
2022/05/01 00:47:16;;;;;;;5.38;3.80;;;9.50;99.90;;;;;;6175252;28;20215;-67
2022/05/01 00:50:22;;;;;;;7.47;4.15;;;9.40;99.90;;;;;;6175616;28;20646;-66
2022/05/01 00:53:27;;;;;;;6.38;3.70;;;9.40;99.90;;;;;;6175292;28;20584;-66
2022/05/01 00:56:36;;;;;;;7.90;3.47;;;9.40;99.90;;;;;;6175214;28;20218;-65
2022/05/01 00:59:41;;;;;;;6.45;4.63;;;9.40;99.90;;;;;;6174683;28;20227;-66
2022/05/01 01:02:48;;;;;;;3.83;3.47;;;9.40;99.90;;;;;;6175344;28;20611;-66
2022/05/01 01:05:53;;;;;;;5.22;3.92;;;9.40;99.90;;;;;;6175707;28;20583;-67
2022/05/01 01:08:59;;;;;;;5.35;4.15;;;9.40;99.90;;;;;;6174670;28;20333;-66
2022/05/01 01:15:43;;;;;;;4.00;3.80;;;9.40;99.90;;;;;;6175345;28;20210;-67
2022/05/01 01:18:49;;;;;;;5.38;3.90;;;9.40;99.90;;;;;;6174594;28;20230;-66
2022/05/01 01:21:56;;;;;;;6.57;3.97;;;9.40;99.90;;;;;;6175187;28;20303;-66
2022/05/01 01:25:02;;;;;;;6.03;3.90;;;9.40;99.90;;;;;;6174432;28;20226;-66
2022/05/01 01:28:08;;;;;;;8.80;3.80;;;9.40;99.90;;;;;;6174100;28;20238;-66
2022/05/01 01:34:39;;;;;;;7.18;4.10;;;9.40;99.90;;;;;;6174491;28;20235;-67
2022/05/01 01:37:46;;;;;;;6.05;4.22;;;9.40;99.90;;;;;;6169797;28;20258;-66
2022/05/01 01:40:54;;;;;;;3.88;3.58;;;9.40;99.90;;;;;;6175029;28;20210;-67
2022/05/01 01:44:00;;;;;;;4.45;4.18;;;9.40;99.90;;;;;;6174177;28;20234;-66
2022/05/01 01:47:07;;;;;;;4.45;4.00;;;9.40;99.90;;;;;;6173358;28;20214;-67
2022/05/01 01:50:13;;;;;;;6.10;3.80;;;9.40;99.90;;;;;;6174599;28;20207;-66
2022/05/01 01:53:20;;;;;;;4.35;4.13;;;9.40;99.90;;;;;;6173894;28;20231;-67
2022/05/01 01:56:25;;;;;;;4.95;4.55;;;9.30;99.90;;;;;;6174707;28;20306;-66
2022/05/01 01:59:31;;;;;;;5.65;4.50;;;9.30;99.90;;;;;;6173496;28;20238;-68
2022/05/01 02:02:37;;;;;;;4.70;4.40;;;9.30;99.90;;;;;;6169038;28;20237;-67
2022/05/01 02:05:42;;;;;;;4.82;4.53;;;9.30;99.90;;;;;;6173925;28;20559;-66
2022/05/01 02:08:49;;;;;;;4.50;4.30;;;9.20;99.90;;;;;;6174286;28;20234;-66
2022/05/01 02:11:57;;;;;;;5.65;4.32;;;9.20;99.90;;;;;;6173671;28;20654;-66
2022/05/01 02:15:02;;;;;;;4.95;4.57;;;9.10;99.90;;;;;;6173179;28;20318;-66
2022/05/01 02:18:10;;;;;;;4.57;4.28;;;9.10;99.90;;;;;;6174450;28;20241;-67
2022/05/01 02:24:51;;;;;;;4.75;4.30;;;9.10;99.90;;;;;;6081320;28;20241;-65
2022/05/01 02:27:56;;;;;;;5.55;5.20;;;9.20;99.90;;;;;;6179273;28;20243;-65
2022/05/01 02:31:02;;;;;;;5.32;4.82;;;9.20;99.90;;;;;;6176420;28;20211;-67
2022/05/01 02:34:08;;;;;;;7.00;4.50;;;9.20;99.90;;;;;;6173072;28;20715;-67
2022/05/01 02:37:14;;;;;;;4.70;4.40;;;9.10;99.90;;;;;;6173203;28;20206;-66
2022/05/01 02:40:20;;;;;;;4.80;4.50;;;9.00;99.90;;;;;;6166584;28;20230;-66
2022/05/01 02:43:27;;;;;;;4.60;4.40;;;9.10;99.90;;;;;;6177366;28;20237;-66
2022/05/01 02:46:33;;;;;;;5.00;4.60;;;8.90;99.90;;;;;;6181667;28;20209;-66
2022/05/01 02:49:40;;;;;;;4.88;4.47;;;9.00;99.90;;;;;;6180776;28;20264;-67
2022/05/01 02:52:46;;;;;;;5.38;4.60;;;8.90;99.90;;;;;;6163472;28;20234;-66
2022/05/01 02:55:53;;;;;;;5.32;4.93;;;8.80;99.90;;;;;;6181714;28;20220;-67
2022/05/01 02:58:59;;;;;;;4.45;4.15;;;8.90;99.90;;;;;;6180699;28;20238;-67
2022/05/01 03:02:05;;;;;;;6.22;3.95;;;8.90;99.90;;;;;;6180055;28;20202;-66
2022/05/01 03:05:12;;;;;;;4.50;4.20;;;8.90;99.90;;;;;;6173006;28;20204;-67
2022/05/01 03:08:18;;;;;;;3.70;3.50;;;9.00;99.90;;;;;;6180356;28;20238;-67
2022/05/01 03:11:24;;;;;;;3.33;3.22;;;9.10;99.90;;;;;;6181280;28;20204;-67
2022/05/01 03:14:30;;;;;;;4.90;4.50;;;9.10;99.90;;;;;;6180904;28;20230;-66
2022/05/01 03:24:20;;;;;;;5.00;2.50;;;9.10;99.90;;;;;;6148331;28;20234;-67
2022/05/01 03:27:27;;;;;;;2.70;2.45;;;9.10;99.70;;;;;;6180275;28;20233;-66
2022/05/01 03:30:32;;;;;;;2.38;2.17;;;9.20;99.10;;;;;;6180430;28;20217;-66
2022/05/01 03:33:38;;;;;;;2.42;2.22;;;9.20;98.20;;;;;;6180371;28;20546;-66
2022/05/01 03:36:44;;;;;;;2.00;1.90;;;9.20;97.20;;;;;;6180556;28;20203;-67
2022/05/01 03:39:49;;;;;;;2.65;2.03;;;9.20;96.00;;;;;;6177325;28;20566;-67
2022/05/01 03:42:56;;;;;;;1.88;1.88;;;9.30;96.20;;;;;;6179577;28;20681;-66
2022/05/01 03:46:02;;;;;;;1.90;1.80;;;9.30;95.80;;;;;;6180532;28;20211;-66
2022/05/01 03:49:09;;;;;;;1.98;1.98;;;9.20;95.00;;;;;;6180476;28;20692;-67
2022/05/01 03:52:14;;;;;;;2.20;2.00;;;9.30;94.90;;;;;;6180416;28;20206;-66
2022/05/01 03:55:20;;;;;;;1.90;1.80;;;9.30;94.40;;;;;;6169330;28;20233;-66
2022/05/01 03:58:29;;;;;;;1.92;1.88;;;9.30;93.80;;;;;;6175752;28;20249;-65
2022/05/01 04:01:35;;;;;;;2.60;2.50;;;9.20;93.60;;;;;;6176819;28;20233;-67
2022/05/01 04:04:41;;;;;;;2.30;2.20;;;9.30;93.80;;;;;;6176602;28;20234;-66
2022/05/01 04:07:46;;;;;;;1.90;1.80;;;9.30;93.10;;;;;;6176219;28;20322;-66
2022/05/01 04:10:52;;;;;;;1.90;1.90;;;9.40;92.80;;;;;;6174297;28;20202;-66
2022/05/01 04:14:01;;;;;;;2.33;2.20;;;9.40;92.90;;;;;;6176344;28;20673;-66
2022/05/01 04:17:07;;;;;;;1.85;1.85;;;9.40;92.00;;;;;;6176878;28;20215;-66
2022/05/01 04:20:15;;;;;;;2.15;2.08;;;9.40;92.10;;;;;;6176707;28;20233;-66
2022/05/01 04:23:21;;;;;;;1.63;1.63;;;9.40;91.90;;;;;;6176104;28;20234;-66
2022/05/01 04:26:27;;;;;;;1.95;1.88;;;9.40;91.70;;;;;;6176823;28;20214;-66
2022/05/01 04:29:41;;;;;;;2.15;2.10;;;9.40;91.30;;;;;;6175788;28;20246;-65
2022/05/01 04:32:50;;;;;;;1.88;1.80;;;9.40;91.00;;;;;;6172516;28;20247;-66
2022/05/01 04:35:55;;;;;;;1.75;1.75;;;9.40;90.60;;;;;;6175634;28;20225;-67
2022/05/01 04:39:00;;;;;;;2.17;2.08;;;9.30;91.30;;;;;;6178727;28;20234;-67
2022/05/01 04:42:07;;;;;;;2.50;1.98;;;9.40;90.90;;;;;;6179237;28;20230;-66
2022/05/01 04:45:14;;;;;;;1.85;1.85;;;9.40;90.50;;;;;;6179883;28;20217;-66
2022/05/01 04:48:20;;;;;;;1.70;1.70;;;9.40;89.80;;;;;;6178969;28;20257;-65
2022/05/01 04:51:26;;;;;;;1.67;1.67;;;9.30;88.80;;;;;;6176335;28;20214;-66
2022/05/01 04:54:31;;;;;;;1.80;1.48;;;9.30;87.70;;;;;;6175472;28;20321;-67
2022/05/01 04:57:39;;;;;;;1.52;1.52;;;9.30;86.20;;;;;;6175771;28;20700;-66
2022/05/01 05:00:46;;;;;;;2.60;1.55;;;9.30;86.30;;;;;;6175467;28;20226;-66
2022/05/01 05:03:53;;;;;;;1.38;1.38;;;9.40;85.70;;;;;;6171851;28;20701;-66
2022/05/01 05:06:58;;;;;;;1.65;1.60;;;9.30;83.90;;;;;;6174120;28;20238;-68
2022/05/01 05:10:05;;;;;;;2.15;1.50;;;9.40;83.30;;;;;;6168005;28;20209;-66
2022/05/01 05:13:14;;;;;;;1.58;1.55;;;9.40;83.60;;;;;;6174641;28;20260;-66
2022/05/01 05:16:21;;;;;;;4.18;1.75;;;9.40;84.00;;;;;;6168051;28;20211;-67
2022/05/01 05:19:27;;;;;;;1.75;1.40;;;9.50;83.30;;;;;;6174918;28;20333;-66
2022/05/01 05:22:32;;;;;;;1.70;1.67;;;9.40;81.80;;;;;;6174631;28;20272;-66
2022/05/01 05:25:37;;;;;;;1.90;1.42;;;9.50;82.00;;;;;;6174652;28;20225;-67
2022/05/01 05:28:42;;;;;;;1.45;1.38;;;9.60;81.80;;;;;;6174880;28;20239;-67
2022/05/01 05:31:49;;;;;;;1.67;1.60;;;9.60;80.70;;;;;;6175420;28;20210;-66
2022/05/01 05:34:55;;;;;;;1.52;1.42;;;9.50;79.30;;;;;;6175367;28;20238;-66
2022/05/01 05:38:00;;;;;;;1.33;1.33;;;9.50;79.70;;;;;;6174320;28;20262;-65
2022/05/01 05:41:06;;;;;;;1.25;1.25;;;9.50;78.20;;;;;;6175243;28;20234;-65
2022/05/01 05:44:13;;;;;;;1.67;1.30;;;9.50;78.00;;;;;;6174253;28;20327;-67
2022/05/01 05:47:20;;;;;;;1.30;1.30;;;9.50;76.70;;;;;;6174356;28;20242;-67
2022/05/01 05:50:25;;;;;;;1.20;1.20;;;9.40;76.30;;;;;;6174139;28;20207;-66
2022/05/01 05:53:31;;;;;;;1.23;1.23;;;9.40;76.40;;;;;;6168449;28;20250;-67
2022/05/01 05:56:37;;;;;;;1.23;1.23;;;9.40;76.20;;;;;;6169899;28;20573;-66
2022/05/01 05:59:42;;;;;;;1.40;1.40;;;9.40;75.40;;;;;;6153142;28;20241;-67
2022/05/01 06:02:49;;;;;;;1.35;1.33;;;9.40;76.10;;;;;;6173659;28;20624;-66
2022/05/01 06:05:55;;;;;;;1.10;1.10;;;9.50;75.60;;;;;;6174764;28;20668;-66
2022/05/01 06:09:01;;;;;;;1.20;1.20;;;9.70;75.10;;;;;;6172851;28;20242;-67
2022/05/01 06:12:09;;;;;;;1.15;1.15;;;9.90;73.70;;;;;;6173755;28;20207;-67
2022/05/01 06:15:14;;;;;;;2.10;1.27;;;10.00;72.80;;;;;;6173904;28;20213;-66
2022/05/01 06:18:21;;;;;;;1.35;1.25;;;10.30;71.40;;;;;;6172646;28;20310;-66
2022/05/01 06:21:27;;;;;;;1.20;1.20;;;10.40;70.30;;;;;;6173982;28;20249;-67
2022/05/01 06:24:32;;;;;;;1.10;1.10;;;10.60;68.60;;;;;;6174345;28;20227;-66
2022/05/01 06:27:38;;;;;;;1.33;1.33;;;10.70;67.60;;;;;;6172063;28;20235;-66
2022/05/01 06:30:45;;;;;;;2.80;1.13;;;10.60;65.20;;;;;;6173571;28;20210;-66
2022/05/01 06:33:52;;;;;;;1.48;1.48;;;10.50;64.60;;;;;;6173580;28;20230;-66
2022/05/01 06:36:58;;;;;;;1.40;1.30;;;10.40;65.50;;;;;;6173813;28;20202;-68
2022/05/01 06:40:04;;;;;;;1.20;1.20;;;10.50;65.40;;;;;;6166127;28;20219;-66
2022/05/01 06:43:11;;;;;;;1.52;1.48;;;10.50;66.40;;;;;;6172851;28;20238;-67
2022/05/01 06:46:17;;;;;;;1.38;1.30;;;10.50;66.50;;;;;;6173045;28;20207;-67
2022/05/01 06:49:24;;;;;;;1.88;1.50;;;10.40;66.70;;;;;;6172990;28;20234;-66
2022/05/01 06:52:31;;;;;;;1.30;1.30;;;10.50;66.50;;;;;;6172777;28;20231;-66
2022/05/01 06:55:36;;;;;;;1.50;1.50;;;10.60;67.90;;;;;;6156589;28;20236;-66
2022/05/01 06:58:42;;;;;;;1.20;1.20;;;10.60;66.40;;;;;;6173550;28;20248;-67
2022/05/01 07:01:48;;;;;;;1.17;1.17;;;10.60;66.60;;;;;;6175296;28;20269;-67
2022/05/01 07:04:54;;;;;;;1.30;1.30;;;10.60;64.80;;;;;;6176068;28;20269;-67
2022/05/01 07:08:00;;;;;;;2.40;1.40;;;10.60;64.50;;;;;;6175127;28;20554;-67
2022/05/01 07:11:06;;;;;;;1.25;1.25;;;10.70;64.80;;;;;;6174048;28;20228;-67
2022/05/01 07:14:12;;;;;;;1.75;1.63;;;10.80;64.70;;;;;;6173436;28;20242;-66
2022/05/01 07:17:17;;;;;;;2.70;1.33;;;10.80;64.30;;;;;;6172525;28;20238;-67
2022/05/01 07:20:23;;;;;;;1.50;1.40;;;10.80;63.30;;;;;;6173909;28;20211;-67
2022/05/01 07:23:30;;;;;;;1.50;1.20;;;10.80;62.50;;;;;;6172588;28;20318;-66
2022/05/01 07:26:36;;;;;;;1.10;1.10;;;10.80;62.50;;;;;;6174587;28;20206;-66
2022/05/01 07:29:41;;;;;;;1.30;1.30;;;10.90;61.40;;;;;;6174378;28;20238;-65
2022/05/01 07:32:47;;;;;;;1.30;1.30;;;11.00;58.70;;;;;;6178020;28;20230;-66
2022/05/01 07:35:54;;;;;;;2.38;1.20;;;11.00;58.30;;;;;;6182510;28;20221;-65
2022/05/01 07:38:59;;;;;;;1.40;1.40;;;11.10;58.70;;;;;;6184355;28;20264;-66
2022/05/01 07:42:05;;;;;;;1.05;1.05;;;11.20;59.80;;;;;;6179388;28;20227;-66
2022/05/01 07:45:12;;;;;;;1.08;1.08;;;11.10;57.90;;;;;;6159851;28;20211;-66
2022/05/01 07:48:17;;;;;;;1.10;1.10;;;11.20;59.30;;;;;;6159146;28;20248;-67
2022/05/01 07:51:24;;;;;;;1.15;1.13;;;11.00;57.50;;;;;;6178066;28;20210;-67
2022/05/01 07:54:29;;;;;;;1.15;1.13;;;11.10;58.30;;;;;;6176633;28;20226;-68
2022/05/01 07:57:35;;;;;;;1.95;1.90;;;11.20;57.80;;;;;;6175775;28;20227;-67
2022/05/01 08:00:40;;;;;;;2.50;1.80;;;11.20;56.50;;;;;;6177451;28;20207;-67
2022/05/01 08:07:10;;;;;;;3.22;1.23;;;11.30;57.40;;;;;;6181957;28;20235;-67
2022/05/01 08:10:16;;;;;;;1.95;1.20;;;11.30;57.30;;;;;;6180897;28;20695;-67
2022/05/01 08:13:21;;;;;;;1.40;1.40;;;11.30;56.90;;;;;;6179155;28;20273;-67
2022/05/01 08:16:27;;;;;;;1.10;1.10;;;11.30;57.00;;;;;;6178375;28;20210;-67
2022/05/01 08:23:04;;;;;;;0.85;0.85;;;11.40;56.90;;;;;;6174648;28;20234;-66
2022/05/01 08:26:13;;;;;;;4.38;1.23;;;11.40;56.10;;;;;;6177064;28;20206;-67
2022/05/01 08:29:19;;;;;;;0.93;0.93;;;11.40;55.80;;;;;;6175915;28;20269;-68
2022/05/01 08:32:26;;;;;;;1.58;0.82;;;11.40;55.80;;;;;;6175340;28;20242;-66
2022/05/01 08:35:32;;;;;;;0.80;0.80;;;11.50;55.60;;;;;;6176611;28;20681;-66
2022/05/01 08:38:39;;;;;;;1.10;0.88;;;11.40;55.50;;;;;;6176032;28;20234;-67
2022/05/01 08:41:45;;;;;;;1.70;1.10;;;11.50;56.70;;;;;;6175834;28;20211;-66
2022/05/01 08:44:50;;;;;;;0.80;0.80;;;11.40;54.70;;;;;;6175622;28;20243;-68
2022/05/01 08:48:01;;;;;;;0.70;0.70;;;11.40;54.60;;;;;;6175698;28;20245;-66
2022/05/01 08:51:07;;;;;;;0.90;0.90;;;11.50;54.90;;;;;;6176002;28;20206;-66
2022/05/01 08:54:16;;;;;;;1.00;1.00;;;11.30;54.10;;;;;;6175529;28;20238;-68
2022/05/01 08:57:22;;;;;;;3.53;0.93;;;11.50;55.60;;;;;;6175123;28;20619;-68
2022/05/01 09:00:28;;;;;;;1.25;0.70;;;11.70;55.20;;;;;;6175907;28;20626;-65
2022/05/01 09:03:33;;;;;;;0.70;0.70;;;11.70;53.90;;;;;;6175514;28;20533;-65
2022/05/01 09:06:40;;;;;;;4.90;1.00;;;11.60;54.80;;;;;;6174556;28;20237;-66
2022/05/01 09:09:49;;;;;;;0.65;0.65;;;11.50;54.10;;;;;;6175197;28;20342;-66
2022/05/01 09:12:55;;;;;;;0.80;0.80;;;11.50;54.30;;;;;;6174816;28;20248;-67
2022/05/01 09:16:12;;;;;;;2.50;0.88;;;11.60;54.70;;;;;;6175585;28;20210;-67
2022/05/01 09:19:31;;;;;;;1.42;0.90;;;11.80;55.00;;;;;;6175085;28;20244;-66
2022/05/01 09:22:50;;;;;;;0.80;0.80;;;12.00;54.80;;;;;;6174529;28;20235;-66
2022/05/01 09:26:00;;;;;;;0.80;0.80;;;12.10;54.00;;;;;;6175142;28;20566;-66
2022/05/01 09:29:22;;;;;;;1.50;1.17;;;12.20;53.80;;;;;;6174677;28;20598;-66
2022/05/01 09:32:37;;;;;;;0.90;0.90;;;12.00;53.80;;;;;;6175087;28;20572;-65
2022/05/01 09:35:43;;;;;;;1.00;1.00;;;11.90;52.80;;;;;;6173693;28;20219;-66
2022/05/01 09:39:03;;;;;;;3.08;1.02;;;11.80;52.70;;;;;;6174852;28;20249;-68
2022/05/01 09:42:19;;;;;;;0.98;0.98;;;11.90;53.30;;;;;;6174094;28;20614;-66
2022/05/01 09:45:31;;;;;;;0.82;0.82;;;12.00;53.10;;;;;;6175166;28;20237;-66
2022/05/01 09:48:44;;;;;;;1.00;0.80;;;12.10;52.70;;;;;;6172911;28;20231;-68
2022/05/01 09:51:56;;;;;;;1.15;1.15;;;12.20;52.70;;;;;;6174238;28;20218;-66
2022/05/01 09:55:03;;;;;;;0.90;0.90;;;12.00;51.50;;;;;;6173901;28;20210;-66
2022/05/01 09:58:17;;;;;;;1.90;0.88;;;12.00;51.50;;;;;;6174252;28;20249;-67
2022/05/01 10:01:22;;;;;;;2.00;0.90;;;12.00;51.60;;;;;;6174167;28;20521;-67
2022/05/01 10:04:28;;;;;;;1.10;1.10;;;12.10;51.40;;;;;;6173709;28;20238;-66
2022/05/01 10:07:37;;;;;;;0.95;0.95;;;12.20;51.90;;;;;;6173447;28;20239;-67
2022/05/01 10:10:43;;;;;;;13.70;1.75;;;12.20;51.80;;;;;;6174540;28;20207;-66
2022/05/01 10:13:50;;;;;;;0.60;0.60;;;12.30;51.20;;;;;;6173857;28;20234;-66
2022/05/01 10:16:55;;;;;;;1.60;0.80;;;12.40;50.40;;;;;;6173773;28;20207;-67
2022/05/01 10:20:03;;;;;;;0.93;0.82;;;12.50;50.30;;;;;;6172756;28;20222;-66
2022/05/01 10:23:08;;;;;;;0.82;0.82;;;12.30;49.80;;;;;;6173724;28;20231;-67
2022/05/01 10:26:25;;;;;;;0.95;0.90;;;12.30;50.50;;;;;;6173682;28;20242;-67
2022/05/01 10:33:37;;;;;;;4.65;1.00;;;12.50;50.00;;;;;;6166662;28;20238;-67
2022/05/01 10:36:58;;;;;;;3.50;1.30;;;12.50;48.30;;;;;;6173387;28;20237;-65
2022/05/01 10:40:06;;;;;;;1.20;0.82;;;12.50;49.30;;;;;;6172736;28;20230;-65
2022/05/01 10:43:28;;;;;;;0.98;0.80;;;12.50;48.80;;;;;;6172974;28;20689;-65
2022/05/01 10:46:35;;;;;;;1.00;1.00;;;12.50;49.10;;;;;;6173491;28;20234;-65
2022/05/01 10:49:45;;;;;;;0.95;0.82;;;12.60;48.90;;;;;;6173086;28;20238;-66
2022/05/01 10:53:08;;;;;;;1.92;1.65;;;12.80;49.10;;;;;;6173327;28;20226;-66
2022/05/01 10:56:22;;;;;;;1.20;1.20;;;12.80;47.80;;;;;;6173042;28;20605;-64
2022/05/01 10:59:35;;;;;;;0.98;0.95;;;12.90;47.80;;;;;;6173199;28;20238;-65
2022/05/01 11:02:48;;;;;;;0.98;0.98;;;13.00;48.00;;;;;;6173060;28;20605;-65
2022/05/01 11:05:56;;;;;;;1.20;0.90;;;13.00;48.80;;;;;;6177851;28;20242;-67
2022/05/01 11:09:02;;;;;;;0.70;0.70;;;12.90;48.00;;;;;;6177945;28;20262;-65
2022/05/01 11:12:09;;;;;;;0.70;0.70;;;13.00;48.00;;;;;;6177655;28;20567;-66
2022/05/01 11:15:27;;;;;;;1.27;1.10;;;13.10;47.30;;;;;;6176691;28;20513;-65
2022/05/01 11:18:53;;;;;;;0.90;0.90;;;13.00;45.70;;;;;;6175804;28;20226;-65
2022/05/01 11:21:58;;;;;;;0.90;0.90;;;13.00;44.80;;;;;;6177647;28;20207;-66
2022/05/01 11:25:07;;;;;;;0.80;0.80;;;12.90;43.50;;;;;;6177844;28;20234;-66
2022/05/01 11:28:50;;;;;;;2.05;0.80;;;13.10;43.40;;;;;;6177577;28;20231;-66
2022/05/01 11:31:55;;;;;;;1.85;0.80;;;13.20;43.60;;;;;;6177483;28;20222;-67
2022/05/01 11:35:03;;;;;;;1.15;0.90;;;13.20;43.00;;;;;;6176960;28;20214;-65
2022/05/01 11:38:11;;;;;;;2.75;0.90;;;13.30;42.40;;;;;;6177442;28;20233;-65
2022/05/01 11:41:17;;;;;;;1.65;0.80;;;13.30;42.00;;;;;;6177981;28;20211;-67
2022/05/01 11:44:24;;;;;;;1.73;0.93;;;13.30;42.60;;;;;;6174388;28;20239;-65
2022/05/01 11:47:33;;;;;;;0.70;0.70;;;13.20;43.00;;;;;;6177029;28;20246;-66
2022/05/01 11:50:40;;;;;;;1.08;0.82;;;13.10;42.70;;;;;;6177251;28;20209;-65
2022/05/01 11:53:46;;;;;;;1.50;1.00;;;13.20;42.80;;;;;;6177391;28;20234;-65
2022/05/01 12:03:43;;;;;;;0.80;0.80;;;13.40;41.90;;;;;;6175081;28;20245;-66
2022/05/01 12:06:50;;;;;;;2.92;0.90;;;13.60;42.00;;;;;;6176573;28;20254;-65
2022/05/01 12:09:55;;;;;;;0.98;0.98;;;13.70;41.00;;;;;;6176727;28;20309;-66
2022/05/01 12:13:00;;;;;;;0.90;0.90;;;13.60;41.20;;;;;;6176613;28;20241;-66
2022/05/01 12:16:07;;;;;;;0.70;0.70;;;13.50;40.70;;;;;;6174840;28;20210;-65
2022/05/01 12:19:14;;;;;;;0.80;0.80;;;13.30;40.40;;;;;;6176522;28;20242;-66
2022/05/01 12:22:24;;;;;;;2.45;0.80;;;13.30;40.10;;;;;;6175968;28;20238;-66
2022/05/01 12:25:30;;;;;;;1.02;1.00;;;13.30;40.40;;;;;;6176866;28;20206;-65
2022/05/01 12:28:37;;;;;;;6.63;1.02;;;13.20;40.10;;;;;;6175090;28;20237;-66
2022/05/01 12:32:10;;;;;;;0.63;0.63;;;13.20;40.60;;;;;;6176674;28;20209;-65
2022/05/01 12:35:15;;;;;;;0.75;0.60;;;13.50;39.90;;;;;;6129495;28;20219;-65
2022/05/01 12:38:23;;;;;;;0.70;0.70;;;13.70;40.40;;;;;;6185621;28;20238;-65
2022/05/01 12:45:20;;;;;;;0.63;0.63;;;13.90;40.10;;;;;;6176560;28;20669;-65
2022/05/01 12:48:25;;;;;;;6.50;0.90;;;13.80;40.20;;;;;;6176193;28;20244;-67
2022/05/01 12:51:41;;;;;;;1.77;0.80;;;14.00;40.20;;;;;;6176523;28;20206;-65
2022/05/01 12:55:14;;;;;;;1.05;0.90;;;14.20;40.70;;;;;;6175935;28;20253;-65
2022/05/01 12:58:28;;;;;;;0.90;0.90;;;14.30;40.90;;;;;;6176340;28;20234;-65
2022/05/01 13:01:34;;;;;;;1.25;0.80;;;14.20;40.00;;;;;;6176788;28;20650;-65
2022/05/01 13:04:41;;;;;;;0.93;0.82;;;14.00;40.20;;;;;;6176108;28;20244;-66
2022/05/01 13:07:46;;;;;;;2.17;1.00;;;14.00;40.40;;;;;;6183815;28;20241;-64
2022/05/01 13:11:17;;;;;;;1.35;0.77;;;14.10;41.10;;;;;;6183926;28;20213;-64
2022/05/01 13:14:30;;;;;;;0.80;0.80;;;13.90;40.20;;;;;;6179274;28;20256;-66
2022/05/01 13:17:36;;;;;;;1.40;0.80;;;13.90;40.10;;;;;;6175204;28;20254;-65
2022/05/01 13:20:41;;;;;;;1.92;0.90;;;13.90;40.40;;;;;;6175628;28;20217;-64
2022/05/01 13:23:47;;;;;;;0.70;0.70;;;13.80;39.90;;;;;;6175237;28;20253;-66
2022/05/01 13:26:54;;;;;;;0.70;0.70;;;13.80;39.90;;;;;;6158102;28;20227;-67
2022/05/01 13:29:59;;;;;;;1.48;1.20;;;13.70;40.30;;;;;;6174755;28;20226;-67
2022/05/01 13:33:06;;;;;;;1.10;0.90;;;13.80;40.90;;;;;;6175136;28;20230;-65
2022/05/01 13:36:12;;;;;;;4.03;0.93;;;14.00;41.30;;;;;;6173396;28;20619;-65
2022/05/01 13:39:17;;;;;;;0.80;0.80;;;14.10;40.60;;;;;;6174749;28;20241;-66
2022/05/01 13:45:49;;;;;;;1.85;0.70;;;14.00;40.60;;;;;;6173010;28;20209;-65
2022/05/01 13:48:54;;;;;;;1.77;0.70;;;13.90;40.00;;;;;;6172971;28;20242;-66
2022/05/01 13:52:00;;;;;;;5.28;1.35;;;13.90;39.70;;;;;;6173879;28;20207;-67
2022/05/01 13:55:06;;;;;;;0.77;0.77;;;14.00;39.10;;;;;;6174365;28;20218;-66
2022/05/01 13:58:14;;;;;;;1.55;0.80;;;13.90;39.80;;;;;;6174247;28;20240;-66
2022/05/01 14:01:21;;;;;;;0.95;0.80;;;13.90;39.80;;;;;;6174767;28;20312;-66
2022/05/01 14:04:29;;;;;;;0.70;0.70;;;13.70;40.10;;;;;;6174113;28;20257;-67
2022/05/01 14:07:34;;;;;;;0.93;0.73;;;13.70;40.00;;;;;;6173177;28;20702;-66
2022/05/01 14:10:39;;;;;;;0.75;0.75;;;13.70;39.70;;;;;;6174217;28;20199;-65
2022/05/01 14:13:46;;;;;;;1.92;0.93;;;13.70;39.40;;;;;;6172971;28;20234;-67
2022/05/01 14:16:51;;;;;;;6.05;0.90;;;13.70;39.50;;;;;;6174203;28;20206;-66
2022/05/01 14:19:57;;;;;;;0.63;0.63;;;13.60;39.60;;;;;;6172032;28;20231;-66
2022/05/01 14:23:06;;;;;;;2.65;0.77;;;13.80;39.70;;;;;;6173281;28;20680;-66
2022/05/01 14:26:12;;;;;;;0.95;0.80;;;13.90;40.10;;;;;;6174182;28;20211;-66
2022/05/01 14:29:19;;;;;;;0.65;0.65;;;14.20;39.70;;;;;;6173904;28;20242;-65
2022/05/01 14:32:27;;;;;;;0.68;0.68;;;14.50;39.40;;;;;;6173696;28;20568;-65
2022/05/01 14:35:34;;;;;;;0.52;0.52;;;14.50;39.10;;;;;;6173834;28;20241;-66
2022/05/01 14:38:48;;;;;;;1.75;0.85;;;14.30;38.80;;;;;;6172719;28;20245;-66
2022/05/01 14:41:58;;;;;;;0.90;0.90;;;14.20;42.60;;;;;;6174203;28;20207;-65
2022/05/01 14:45:08;;;;;;;1.08;1.08;;;14.00;46.10;;;;;;6173404;28;20577;-65
2022/05/01 14:48:25;;;;;;;1.20;1.20;;;13.90;47.80;;;;;;6173507;28;20788;-67
2022/05/01 14:51:32;;;;;;;1.08;1.08;;;13.70;48.90;;;;;;6172621;28;20207;-66
2022/05/01 14:54:40;;;;;;;1.65;1.55;;;13.60;49.20;;;;;;6173548;28;20603;-66
2022/05/01 14:57:45;;;;;;;1.25;1.25;;;13.50;50.30;;;;;;6173255;28;20234;-66
2022/05/01 15:07:41;;;;;;;1.25;0.93;;;13.30;51.40;;;;;;6173419;28;20257;-66
2022/05/01 15:10:47;;;;;;;1.85;1.10;;;13.30;50.90;;;;;;6173684;28;20203;-66
2022/05/01 15:13:52;;;;;;;2.70;1.20;;;13.20;51.50;;;;;;6173272;28;20246;-66
2022/05/01 15:17:07;;;;;;;4.80;1.52;;;13.10;52.20;;;;;;6171931;28;20207;-67
2022/05/01 15:20:20;;;;;;;1.33;1.33;;;13.00;52.50;;;;;;6155433;28;20671;-66
2022/05/01 15:23:37;;;;;;;1.02;1.02;;;13.00;52.20;;;;;;6173466;28;20238;-66
2022/05/01 15:26:43;;;;;;;1.55;1.45;;;13.00;52.20;;;;;;6174017;28;20514;-66
2022/05/01 15:29:49;;;;;;;2.92;1.30;;;13.00;52.10;;;;;;6172797;28;20235;-66
2022/05/01 15:36:45;;;;;;;1.35;0.90;;;12.90;52.30;;;;;;6173614;28;20211;-65
2022/05/01 15:39:58;;;;;;;6.50;1.60;;;12.80;52.70;;;;;;6171864;28;20240;-68
2022/05/01 15:43:05;;;;;;;3.67;1.10;;;12.80;52.70;;;;;;6165853;28;20764;-66
2022/05/01 15:46:28;;;;;;;1.00;1.00;;;12.80;52.50;;;;;;6174170;28;20211;-65
2022/05/01 15:56:25;;;;;;;3.05;1.00;;;12.80;52.70;;;;;;6177741;28;20562;-66
2022/05/01 15:59:32;;;;;;;1.40;0.98;;;12.80;53.10;;;;;;6176653;28;20247;-66
2022/05/01 16:02:39;;;;;;;1.02;1.02;;;12.90;52.70;;;;;;6177150;28;20231;-63
2022/05/01 16:05:47;;;;;;;0.80;0.80;;;12.90;52.70;;;;;;6177726;28;20210;-65
2022/05/01 16:08:55;;;;;;;2.92;1.20;;;12.90;52.60;;;;;;6177251;28;20257;-66
2022/05/01 16:12:13;;;;;;;1.27;1.13;;;12.90;52.30;;;;;;6176577;28;20207;-64
2022/05/01 16:15:27;;;;;;;1.10;1.10;;;12.90;52.70;;;;;;6177576;28;20234;-66
2022/05/01 16:18:37;;;;;;;1.05;1.05;;;12.80;52.90;;;;;;6176868;28;20237;-65
2022/05/01 16:21:49;;;;;;;1.40;1.00;;;12.80;52.70;;;;;;6177556;28;20217;-66
2022/05/01 16:24:56;;;;;;;1.88;0.90;;;12.80;52.40;;;;;;6176679;28;20235;-64
2022/05/01 16:28:06;;;;;;;1.58;1.10;;;12.80;52.80;;;;;;6176531;28;20237;-65
2022/05/01 16:31:14;;;;;;;1.65;1.00;;;12.90;52.40;;;;;;6176718;28;20222;-65
2022/05/01 16:34:27;;;;;;;1.17;1.08;;;12.90;52.30;;;;;;6177487;28;20246;-64
2022/05/01 16:37:38;;;;;;;5.32;1.02;;;12.80;52.70;;;;;;6159338;28;20235;-65
2022/05/01 16:40:46;;;;;;;2.35;1.17;;;12.70;53.40;;;;;;6177029;28;20210;-65
2022/05/01 16:43:52;;;;;;;0.90;0.90;;;12.60;52.60;;;;;;6174835;28;20297;-64
2022/05/01 16:46:58;;;;;;;1.10;1.05;;;12.60;52.60;;;;;;6176350;28;20217;-64
2022/05/01 16:50:08;;;;;;;1.13;1.10;;;12.60;52.40;;;;;;6175651;28;20661;-64
2022/05/01 16:53:18;;;;;;;1.30;1.20;;;12.50;52.90;;;;;;6175894;28;20338;-64
2022/05/01 16:56:25;;;;;;;1.10;1.10;;;12.50;52.90;;;;;;6175874;28;20210;-65
2022/05/01 16:59:32;;;;;;;4.80;1.17;;;12.30;53.00;;;;;;6174443;28;20240;-64
2022/05/01 17:02:50;;;;;;;1.33;0.88;;;12.30;53.20;;;;;;6175330;28;20253;-65
2022/05/01 17:06:02;;;;;;;4.40;1.00;;;12.30;53.20;;;;;;6175779;28;20217;-65
2022/05/01 17:09:17;;;;;;;1.98;0.93;;;12.30;53.00;;;;;;6144428;29;20227;-65
2022/05/01 17:12:37;;;;;;;0.90;0.90;;;12.10;52.90;;;;;;6151027;28;20670;-65
2022/05/01 17:15:42;;;;;;;0.80;0.80;;;12.00;53.60;;;;;;6152313;29;20670;-65
2022/05/01 17:19:10;;;;;;;0.90;0.90;;;11.90;53.70;;;;;;6151438;29;20231;-64
2022/05/01 17:22:23;;;;;;;1.67;1.58;;;12.00;54.10;;;;;;6151602;28;20211;-64
2022/05/01 17:25:40;;;;;;;0.90;0.90;;;11.90;54.50;;;;;;6151575;29;20211;-64